Salt Lake City, Utah
Traffic Map
Current Weather Conditions
Salt Lake City, Utah
Overcast
Overcast

Feels Like: 3°
Wind Chill: Ceiling: 4500
Heat Index: Visibility: 10mi
Dew Point: Wind: 6mph
Humidity: 79% Direction: 160° (SSE)
Pressure: 30.08in Gusts: 0mph
Raw Report DataKSLC 210053Z 16005KT 10SM OVC045 05/02 A3008 RMK AO2 SLP183 T00500017
Traffic Incident Summary
Active as of:
Severity:
Category:
InformationThere was an issue retrieving the traffic information for this location. Please try a different location or try again shortly.
Advertisements
Track Severe Weather on mobile